Guatemala City, Guatemala
Current Conditions -  °F | °C
As of 8:00 AM on Thursday 30 Oct 2014 (Local Time) from MGGT Reporting Station
Drizzle Drizzle  
Wind Chill: 66°   Ceiling: 1400
Heat Index: 66°   Visibility: 5mi
Dew Point: 63°   Wind: 12mph
Humidity: 88%   Direction: 30°NNE
Pressure: 30.24"   Gusts: NA
Location:  14.58°N, 90.52°W
Report Text: MGGT 301400Z 03010KT 8000 -DZ SCT004 BKN014 19/17 Q1024 A3024 BR
Loading
Personal Weather Stations






























Interactive Weather Map
Tropical Storm Tracking
New forecast layout! Learn more

10-Day Weather Forecast

Advertisements
Track Severe Weather on mobile